VTBSVLLB

Guest
Details From VTBS - Bangkok Suvarnabhumi Intl
To VLLB - LUANG PHABANG INTL
Flight Number -
Tags generated
Created
Modified
Stats Distance 387 nm / 716 km
Max Altitude 35,000 ft / 10,668 m
Waypoints 6
Social Downloads 4
Likes 0
Share VATSIM

Download

Looking for another format? Having issues loading an existing format? Contact us
Advertisement - Login to hide

Notes

Basic altitude profile: - Ascent Rate: 2500ft/min - Ascent Speed: 250kts - Cruise Altitude: 35000ft - Cruise Speed: 420kts - Descent Rate: 1500ft/min - Descent Speed: 250kts Options: - Use NATs: yes - Use PACOTS: yes - Use low airways: yes - Use high airways: yes

Route

VTBS NOBER B346 LPB VLLB

ID Type Via Altitude Latitude Longitude Leg Dist Tot Dist Heading (true) Name
O VTBS APT - 0 ft / 0 m 13.68046˚ 100.74751˚ - 0 nm - Bangkok Suvarnabhumi Intl
NOBER FIX - 34,200 ft / 10,424 m 15.27656˚ 100.66833˚ 95 nm 95 nm 357° / 357° -
PCB VOR B346 (AWY-HI) 35,000 ft / 10,668 m 16.67602˚ 101.19670˚ 89 nm 185 nm 20° / 20° PHETCHABUN VOR-DME
YAKUA FIX B346 (AWY-HI) 27,900 ft / 8,504 m 17.73744˚ 101.51435˚ 66 nm 251 nm 16° / 16° -
LPB VOR B346 (AWY-LO) 10,000 ft / 3,048 m 19.89945˚ 102.16033˚ 134 nm 386 nm 16° / 16° LUANG PHABANG VOR-DME
O VLLB APT - 0 ft / 0 m 19.89726˚ 102.16084˚ 0 nm 386 nm 168° / 168° LUANG PHABANG INTL

Altitude Profile

Advertisement - Login to hide

Weather


0- 5 10 15 20 25 30 35+ Temperature / ° C

Clouds and Precipitation
Forecast for 2017-12-18 18:00 UTC. Updated 2 hours ago

Ground ~20,000 ft ~40,000 ft Winds

VTBS

Details ICAO VTBS (BKK)
Name Bangkok Suvarnabhumi Intl
Region Thailand
Timezone Asia/Bangkok (UTC+7.0)
Stats Elevation 5 ft / 2 m (AMSL)
Location 13.680456° 100.747512°
Runways 2
Magnetic Variation 0.571° W

METAR

VTBS 181500Z 05010KT CAVOK 22/10 Q1019 NOSIG

Decode

TAF

TAF VTBS 181100Z 1812/1918 08010KT CAVOK BECMG 1902/1904 9999 FEW040 BECMG 1911/1913 03005KT CAVOK

Decode

Departure Runways

ID Width Length Bearing (true) Bearing (mag) Surface Threshold Offset Overrun Length
01L 200 ft / 61 m 12,194 ft / 3,717 m 14.26° 14.83° Asphalt 0 ft / 0 m 400 ft / 122 m
01R 200 ft / 61 m 13,181 ft / 4,018 m 14.19° 14.76° Asphalt 0 ft / 0 m 400 ft / 122 m
19L 200 ft / 61 m 13,181 ft / 4,018 m 194.19° 194.76° Asphalt 0 ft / 0 m 400 ft / 122 m
19R 200 ft / 61 m 12,194 ft / 3,717 m 194.26° 194.83° Asphalt 0 ft / 0 m 400 ft / 122 m

VLLB

Details ICAO VLLB (LPQ)
Name LUANG PHABANG INTL
Region Laos
Timezone Asia/Vientiane (UTC+7.0)
Stats Elevation 955 ft / 291 m (AMSL)
Location 19.897255° 102.160844°
Runways 1
Magnetic Variation 0.994° W

METAR

Not found

TAF

TAF VLLB 181100Z 1812/1912 36008KT 9999 SCT020 SCT060 BKN080 TEMPO 1814/1820 3000 BR SCT017 SCT050 BKN080

Decode

Destination Runways

ID Width Length Bearing (true) Bearing (mag) Surface Threshold Offset Overrun Length
06 148 ft / 45 m 7,224 ft / 2,202 m 61.07° 62.06° Asphalt 0 ft / 0 m 195 ft / 59 m
24 148 ft / 45 m 7,224 ft / 2,202 m 241.07° 242.06° Asphalt 0 ft / 0 m 195 ft / 59 m